createdAt,value
2024-02-13T00:01:50.811Z,6.24
2024-02-13T00:04:18.387Z,6.14
2024-02-13T00:06:45.062Z,6.29
2024-02-13T00:09:11.635Z,6.22
2024-02-13T00:11:38.370Z,6.52
2024-02-13T00:14:05.097Z,6.26
2024-02-13T00:16:31.725Z,6.40
2024-02-13T00:18:58.402Z,6.30
2024-02-13T00:21:25.047Z,6.18
2024-02-13T00:23:51.681Z,6.16
2024-02-13T00:26:18.368Z,6.06
2024-02-13T00:28:45.054Z,6.19
2024-02-13T00:31:11.743Z,6.02
2024-02-13T00:33:38.380Z,6.13
2024-02-13T00:36:05.367Z,5.99
2024-02-13T00:38:32.017Z,6.06
2024-02-13T00:40:58.686Z,6.01
2024-02-13T00:43:28.042Z,5.87
2024-02-13T00:45:54.751Z,5.87
2024-02-13T00:48:21.457Z,6.07
2024-02-13T00:50:48.450Z,5.86
2024-02-13T00:53:15.197Z,5.81
2024-02-13T00:55:41.810Z,5.89
2024-02-13T00:58:08.475Z,5.74
2024-02-13T01:00:35.256Z,5.86
2024-02-13T01:03:01.884Z,5.77
2024-02-13T01:05:29.282Z,5.67
2024-02-13T01:07:55.943Z,5.65
2024-02-13T01:10:22.575Z,5.71
2024-02-13T01:12:49.298Z,5.70
2024-02-13T01:15:15.894Z,5.70
2024-02-13T01:17:42.694Z,5.67
2024-02-13T01:20:10.462Z,5.65
2024-02-13T01:22:37.161Z,5.77
2024-02-13T01:25:04.216Z,5.73
2024-02-13T01:27:30.825Z,5.82
2024-02-13T01:29:57.738Z,5.73
2024-02-13T01:32:24.762Z,5.67
2024-02-13T01:34:51.991Z,5.69
2024-02-13T01:37:18.817Z,5.67
2024-02-13T01:39:45.601Z,5.61
2024-02-13T01:42:12.596Z,5.64
2024-02-13T01:44:39.222Z,5.61
2024-02-13T01:47:05.933Z,5.67
2024-02-13T01:49:33.053Z,5.68
2024-02-13T01:52:01.573Z,5.56
2024-02-13T01:54:28.639Z,5.73
2024-02-13T01:56:55.838Z,5.67
2024-02-13T01:59:23.072Z,5.56
2024-02-13T02:01:50.307Z,5.52
2024-02-13T02:04:17.276Z,5.55
2024-02-13T02:06:44.292Z,5.56
2024-02-13T02:09:11.035Z,5.59
2024-02-13T02:11:37.967Z,5.62
2024-02-13T02:14:05.879Z,5.51
2024-02-13T02:16:32.472Z,5.57
2024-02-13T02:18:59.338Z,5.75
2024-02-13T02:21:25.984Z,5.55
2024-02-13T02:23:52.784Z,5.51
2024-02-13T02:26:19.463Z,5.36
2024-02-13T02:28:46.106Z,5.45
2024-02-13T02:31:12.730Z,5.47
2024-02-13T02:33:39.372Z,5.52
2024-02-13T02:36:06.136Z,5.58
2024-02-13T02:38:32.880Z,5.59
2024-02-13T02:40:59.497Z,5.55
2024-02-13T02:43:26.156Z,5.37
2024-02-13T02:45:52.757Z,5.26
2024-02-13T02:48:20.005Z,5.36
2024-02-13T02:50:46.795Z,5.48
2024-02-13T02:53:13.444Z,5.39
2024-02-13T02:55:40.063Z,5.32
2024-02-13T02:58:06.834Z,5.23
2024-02-13T03:00:33.416Z,5.38
2024-02-13T03:03:00.110Z,5.30
2024-02-13T03:05:26.903Z,5.36
2024-02-13T03:07:53.554Z,5.33
2024-02-13T03:10:20.223Z,5.36
2024-02-13T03:12:46.863Z,5.42
2024-02-13T03:15:13.745Z,5.44
2024-02-13T03:17:40.610Z,5.11
2024-02-13T03:20:07.874Z,5.15
2024-02-13T03:22:34.476Z,5.14
2024-02-13T03:25:04.240Z,5.25
2024-02-13T03:27:31.909Z,5.21
2024-02-13T03:29:58.752Z,5.20
2024-02-13T03:32:25.709Z,5.07
2024-02-13T03:34:52.425Z,5.21
2024-02-13T03:37:19.092Z,5.04
2024-02-13T03:39:45.687Z,5.17
2024-02-13T03:42:12.544Z,4.95
2024-02-13T03:44:39.211Z,4.79
2024-02-13T03:47:05.887Z,4.76
2024-02-13T03:49:33.219Z,4.66
2024-02-13T03:52:00.542Z,4.69
2024-02-13T03:54:27.132Z,4.73
2024-02-13T03:56:53.776Z,4.75
2024-02-13T03:59:20.516Z,4.69
2024-02-13T04:01:47.247Z,4.81
2024-02-13T04:04:13.886Z,4.76
2024-02-13T04:06:40.601Z,4.65
2024-02-13T04:09:07.255Z,4.77
2024-02-13T04:11:34.559Z,4.77
2024-02-13T04:14:01.154Z,4.79
2024-02-13T04:16:27.935Z,4.66
2024-02-13T04:18:54.806Z,4.73
2024-02-13T04:21:21.751Z,4.70
2024-02-13T04:23:49.997Z,4.77
2024-02-13T04:26:25.572Z,4.97
2024-02-13T04:29:02.338Z,4.71
2024-02-13T04:31:29.121Z,4.80
2024-02-13T04:33:55.885Z,4.81
2024-02-13T04:36:22.679Z,4.95
2024-02-13T04:38:49.444Z,4.89
2024-02-13T04:41:17.182Z,4.83
2024-02-13T04:43:43.802Z,4.87
2024-02-13T04:46:10.994Z,4.74
2024-02-13T04:48:37.752Z,4.61
2024-02-13T04:51:04.814Z,4.64
2024-02-13T04:53:31.934Z,4.60
2024-02-13T04:55:59.082Z,4.85
2024-02-13T04:58:31.068Z,4.86
2024-02-13T05:00:57.798Z,4.72
2024-02-13T05:03:24.451Z,4.80
2024-02-13T05:05:51.241Z,4.75
2024-02-13T05:08:18.548Z,4.63
2024-02-13T05:10:45.160Z,4.69
2024-02-13T05:13:11.772Z,4.85
2024-02-13T05:15:38.388Z,5.03
2024-02-13T05:18:05.623Z,4.62
2024-02-13T05:20:32.523Z,4.71
2024-02-13T05:22:59.217Z,4.79
2024-02-13T05:25:26.204Z,4.68
2024-02-13T05:27:52.822Z,4.78
2024-02-13T05:30:19.520Z,4.46
2024-02-13T05:32:46.257Z,4.43
2024-02-13T05:35:13.173Z,4.54
2024-02-13T05:37:39.841Z,4.52
2024-02-13T05:40:09.638Z,4.41
2024-02-13T05:42:36.467Z,4.34
2024-02-13T05:45:03.140Z,4.39
2024-02-13T05:47:29.849Z,4.39
2024-02-13T05:49:56.533Z,4.23
2024-02-13T05:52:23.114Z,4.37
2024-02-13T05:54:49.738Z,4.26
2024-02-13T05:57:16.540Z,4.19
2024-02-13T05:59:43.216Z,4.26
2024-02-13T06:02:09.851Z,4.08
2024-02-13T06:04:36.482Z,4.01
2024-02-13T06:07:03.392Z,3.98
2024-02-13T06:09:30.155Z,4.00
2024-02-13T06:11:56.863Z,3.91
2024-02-13T06:14:24.073Z,3.99
2024-02-13T06:16:50.711Z,4.11
2024-02-13T06:19:17.312Z,4.12
2024-02-13T06:21:43.921Z,4.09
2024-02-13T06:24:10.541Z,4.06
2024-02-13T06:26:37.423Z,4.09
2024-02-13T06:29:04.816Z,4.25
2024-02-13T06:31:34.699Z,4.29
2024-02-13T06:34:01.666Z,4.31
2024-02-13T06:36:28.370Z,4.30
2024-02-13T06:38:55.084Z,4.33
2024-02-13T06:41:21.772Z,4.46
2024-02-13T06:43:48.435Z,4.57
2024-02-13T06:46:15.063Z,4.45
2024-02-13T06:48:41.900Z,4.33
2024-02-13T06:51:12.562Z,4.37
2024-02-13T06:53:39.717Z,4.46
2024-02-13T06:56:06.859Z,4.37
2024-02-13T06:58:33.741Z,4.38
2024-02-13T07:01:00.413Z,4.44
2024-02-13T07:03:27.134Z,4.45
2024-02-13T07:05:56.965Z,4.49
2024-02-13T07:08:24.320Z,4.60
2024-02-13T07:10:51.245Z,4.65
2024-02-13T07:13:19.883Z,4.70
2024-02-13T07:15:46.777Z,4.77
2024-02-13T07:18:13.698Z,4.82
2024-02-13T07:20:40.497Z,5.03
2024-02-13T07:23:07.247Z,5.17
2024-02-13T07:25:33.943Z,5.18
2024-02-13T07:28:00.594Z,5.16
2024-02-13T07:30:27.560Z,5.25
2024-02-13T07:32:55.611Z,5.32
2024-02-13T07:35:22.304Z,5.39
2024-02-13T07:37:49.478Z,5.42
2024-02-13T07:40:16.234Z,5.55
2024-02-13T07:42:42.883Z,5.49
2024-02-13T07:45:09.605Z,5.49
2024-02-13T07:47:36.455Z,5.43
2024-02-13T07:50:03.254Z,5.51
2024-02-13T07:52:29.835Z,5.59
2024-02-13T07:54:56.405Z,5.65
2024-02-13T07:57:23.034Z,5.70
2024-02-13T07:59:53.141Z,5.66
2024-02-13T08:02:19.905Z,5.75
2024-02-13T08:04:46.542Z,5.73
2024-02-13T08:07:13.169Z,5.71
2024-02-13T08:09:39.852Z,5.65
2024-02-13T08:12:07.233Z,5.76
2024-02-13T08:14:34.972Z,5.86
2024-02-13T08:17:02.487Z,5.71
2024-02-13T08:19:29.123Z,5.76
2024-02-13T08:21:55.799Z,5.81
2024-02-13T08:24:22.703Z,5.85
2024-02-13T08:26:49.541Z,5.93
2024-02-13T08:29:16.463Z,5.96
2024-02-13T08:31:43.103Z,5.93
2024-02-13T08:34:09.993Z,5.99
2024-02-13T08:36:36.874Z,6.04
2024-02-13T08:39:03.709Z,6.16
2024-02-13T08:41:30.423Z,6.19
2024-02-13T08:43:57.169Z,6.35
2024-02-13T08:46:23.926Z,6.29
2024-02-13T08:48:51.131Z,6.51
2024-02-13T08:51:18.741Z,6.36
2024-02-13T08:53:46.457Z,6.57
2024-02-13T08:56:13.746Z,6.62
2024-02-13T08:58:40.710Z,6.71
2024-02-13T09:01:07.437Z,6.88
2024-02-13T09:03:34.049Z,6.87
2024-02-13T09:06:01.168Z,6.96
2024-02-13T09:08:27.862Z,7.07
2024-02-13T09:10:54.473Z,7.10
2024-02-13T09:13:21.039Z,7.20
2024-02-13T09:15:47.590Z,7.30
2024-02-13T09:18:14.402Z,7.27
2024-02-13T09:20:41.128Z,7.34
2024-02-13T09:23:07.756Z,7.38
2024-02-13T09:25:34.430Z,7.46
2024-02-13T09:28:01.046Z,7.63
2024-02-13T09:30:27.708Z,7.59
2024-02-13T09:32:54.601Z,7.79
2024-02-13T09:35:21.439Z,7.80
2024-02-13T09:37:48.145Z,7.86
2024-02-13T09:40:14.865Z,7.84
2024-02-13T09:42:45.674Z,7.80
2024-02-13T09:45:14.660Z,8.11
2024-02-13T09:47:42.165Z,8.13
2024-02-13T09:50:11.730Z,8.30
2024-02-13T09:52:46.814Z,8.32
2024-02-13T09:55:15.717Z,8.26
2024-02-13T09:57:43.032Z,8.24
2024-02-13T10:00:10.145Z,8.42
2024-02-13T10:02:40.464Z,8.53
2024-02-13T10:05:08.666Z,8.39
2024-02-13T10:07:36.588Z,8.41
2024-02-13T10:10:12.785Z,8.55
2024-02-13T10:12:49.858Z,8.58
2024-02-13T10:15:17.240Z,8.55
2024-02-13T10:17:44.007Z,8.53
2024-02-13T10:20:14.445Z,8.71
2024-02-13T10:22:59.300Z,8.95
2024-02-13T10:25:26.110Z,9.18
2024-02-13T10:27:53.260Z,9.10
2024-02-13T10:30:27.836Z,8.73
2024-02-13T10:32:55.428Z,9.05
2024-02-13T10:35:22.659Z,8.97
2024-02-13T10:37:50.384Z,9.11
2024-02-13T10:40:24.439Z,9.22
2024-02-13T10:42:51.629Z,9.52
2024-02-13T10:45:18.596Z,9.68
2024-02-13T10:47:53.239Z,9.83
2024-02-13T10:50:20.090Z,9.55
2024-02-13T10:52:51.463Z,9.48
2024-02-13T10:55:18.782Z,9.60
2024-02-13T10:57:47.390Z,9.77
2024-02-13T11:00:14.341Z,9.75
2024-02-13T11:02:41.905Z,9.76
2024-02-13T11:05:09.088Z,9.89
2024-02-13T11:07:38.859Z,10.01
2024-02-13T11:10:08.322Z,9.92
2024-02-13T11:12:36.337Z,10.13
2024-02-13T11:15:09.680Z,10.08
2024-02-13T11:17:47.244Z,10.14
2024-02-13T11:20:21.217Z,9.91
2024-02-13T11:22:58.765Z,10.31
2024-02-13T11:25:30.486Z,10.56
2024-02-13T11:28:01.485Z,10.68
2024-02-13T11:30:29.151Z,10.26
2024-02-13T11:32:59.992Z,10.05
2024-02-13T11:35:31.754Z,10.32
2024-02-13T11:37:59.144Z,10.37
2024-02-13T11:40:26.494Z,10.35
2024-02-13T11:42:53.587Z,10.35
2024-02-13T11:45:22.454Z,10.28
2024-02-13T11:47:49.768Z,10.42
2024-02-13T11:50:17.582Z,10.34
2024-02-13T11:52:44.312Z,10.64
2024-02-13T11:55:11.347Z,10.60
2024-02-13T11:57:37.962Z,10.66
2024-02-13T12:00:05.533Z,10.63
2024-02-13T12:02:32.358Z,10.33
2024-02-13T12:04:58.983Z,10.66
2024-02-13T12:07:26.014Z,10.57
2024-02-13T12:09:52.833Z,10.78
2024-02-13T12:12:20.272Z,10.30
2024-02-13T12:14:52.918Z,10.04
2024-02-13T12:17:19.625Z,9.68
2024-02-13T12:19:47.621Z,9.46
2024-02-13T12:22:15.329Z,9.69
2024-02-13T12:24:42.110Z,10.05
2024-02-13T12:27:08.916Z,10.44
2024-02-13T12:29:35.671Z,10.52
2024-02-13T12:32:05.994Z,10.09
2024-02-13T12:34:35.798Z,10.01
2024-02-13T12:37:02.559Z,10.13
2024-02-13T12:39:29.172Z,10.47
2024-02-13T12:41:55.894Z,10.56
2024-02-13T12:44:22.619Z,10.25
2024-02-13T12:46:49.446Z,9.95
2024-02-13T12:49:16.189Z,9.99
2024-02-13T12:51:43.375Z,9.62
2024-02-13T12:54:10.036Z,9.71
2024-02-13T12:56:36.692Z,9.73
2024-02-13T12:59:03.513Z,10.24
2024-02-13T13:01:30.914Z,9.94
2024-02-13T13:03:57.671Z,10.20
2024-02-13T13:06:24.395Z,10.20
2024-02-13T13:08:57.115Z,9.80
2024-02-13T13:11:24.753Z,9.84
2024-02-13T13:13:51.357Z,9.64
2024-02-13T13:16:18.133Z,9.37
2024-02-13T13:18:44.809Z,9.31
2024-02-13T13:21:11.622Z,9.26
2024-02-13T13:23:38.453Z,9.05
2024-02-13T13:26:05.132Z,9.17
2024-02-13T13:28:31.824Z,8.97
2024-02-13T13:30:58.554Z,8.98
2024-02-13T13:33:28.485Z,8.95
2024-02-13T13:35:55.247Z,8.91
2024-02-13T13:38:21.893Z,8.73
2024-02-13T13:40:49.150Z,8.97
2024-02-13T13:43:15.784Z,9.46
2024-02-13T13:45:56.975Z,9.62
2024-02-13T13:48:25.739Z,9.63
2024-02-13T13:50:53.597Z,9.66
2024-02-13T13:53:20.861Z,9.62
2024-02-13T13:55:47.545Z,9.79
2024-02-13T13:58:14.207Z,9.78
2024-02-13T14:00:41.757Z,9.65
2024-02-13T14:03:08.378Z,9.62
2024-02-13T14:05:35.341Z,9.28
2024-02-13T14:08:05.866Z,9.14
2024-02-13T14:10:32.605Z,9.20
2024-02-13T14:12:59.831Z,9.05
2024-02-13T14:15:26.495Z,8.81
2024-02-13T14:17:53.171Z,8.93
2024-02-13T14:20:19.918Z,9.31
2024-02-13T14:22:46.572Z,9.37
2024-02-13T14:25:13.190Z,9.60
2024-02-13T14:27:39.837Z,9.42
2024-02-13T14:30:06.841Z,9.56
2024-02-13T14:32:33.730Z,9.45
2024-02-13T14:35:00.740Z,9.36
2024-02-13T14:37:27.657Z,9.23
2024-02-13T14:39:54.285Z,9.12
2024-02-13T14:42:20.942Z,9.28
2024-02-13T14:44:47.609Z,9.22
2024-02-13T14:47:14.297Z,9.28
2024-02-13T14:49:40.998Z,8.90
2024-02-13T14:52:08.010Z,8.69
2024-02-13T14:54:34.727Z,8.69
2024-02-13T14:57:01.705Z,8.39
2024-02-13T14:59:28.585Z,8.30
2024-02-13T15:01:56.044Z,8.58
2024-02-13T15:04:23.167Z,8.58
2024-02-13T15:06:49.964Z,8.26
2024-02-13T15:09:17.391Z,8.43
2024-02-13T15:11:44.421Z,8.52
2024-02-13T15:14:11.012Z,8.42
2024-02-13T15:16:38.055Z,8.24
2024-02-13T15:19:04.888Z,8.05
2024-02-13T15:21:31.722Z,8.10
2024-02-13T15:23:58.428Z,7.98
2024-02-13T15:26:25.065Z,7.98
2024-02-13T15:28:52.139Z,8.05
2024-02-13T15:31:18.788Z,7.91
2024-02-13T15:33:45.559Z,7.98
2024-02-13T15:36:12.525Z,7.98
2024-02-13T15:38:39.201Z,7.93
2024-02-13T15:41:05.844Z,7.85
2024-02-13T15:43:32.519Z,7.73
2024-02-13T15:45:59.133Z,7.86
2024-02-13T15:48:25.866Z,7.67
2024-02-13T15:50:53.575Z,7.59
2024-02-13T15:53:20.256Z,7.65
2024-02-13T15:55:46.880Z,7.75
2024-02-13T15:58:13.422Z,7.61
2024-02-13T16:00:40.012Z,7.41
2024-02-13T16:03:07.061Z,7.65
2024-02-13T16:05:33.738Z,7.71
2024-02-13T16:08:00.433Z,7.53
2024-02-13T16:10:27.327Z,7.47
2024-02-13T16:12:54.223Z,7.42
2024-02-13T16:15:20.866Z,7.31
2024-02-13T16:17:47.530Z,7.29
2024-02-13T16:20:14.188Z,7.29
2024-02-13T16:22:40.832Z,7.18
2024-02-13T16:25:07.851Z,6.97
2024-02-13T16:27:35.366Z,7.09
2024-02-13T16:30:06.288Z,6.92
2024-02-13T16:32:39.374Z,6.94
2024-02-13T16:35:07.451Z,6.67
2024-02-13T16:37:34.144Z,6.68
2024-02-13T16:40:01.143Z,6.41
2024-02-13T16:42:27.833Z,6.44
2024-02-13T16:44:57.752Z,6.56
2024-02-13T16:47:24.544Z,6.48
2024-02-13T16:49:52.092Z,6.54
2024-02-13T16:52:18.711Z,6.48
2024-02-13T16:54:45.395Z,6.26
2024-02-13T16:57:12.081Z,6.31
2024-02-13T16:59:38.792Z,6.29
2024-02-13T17:02:05.713Z,6.28
2024-02-13T17:04:32.358Z,6.36
2024-02-13T17:06:59.242Z,6.28
2024-02-13T17:09:26.107Z,6.29
2024-02-13T17:11:52.769Z,6.14
2024-02-13T17:14:19.511Z,6.16
2024-02-13T17:16:46.181Z,6.21
2024-02-13T17:19:12.991Z,6.25
2024-02-13T17:21:42.532Z,5.98
2024-02-13T17:24:09.551Z,5.95
2024-02-13T17:26:36.443Z,5.93
2024-02-13T17:29:03.775Z,6.03
2024-02-13T17:31:30.709Z,5.79
2024-02-13T17:33:57.623Z,5.66
2024-02-13T17:36:24.489Z,5.66
2024-02-13T17:38:51.275Z,5.73
2024-02-13T17:41:17.977Z,5.61
2024-02-13T17:43:44.611Z,5.61
2024-02-13T17:46:11.237Z,5.57
2024-02-13T17:48:38.074Z,5.73
2024-02-13T17:51:04.944Z,5.83
2024-02-13T17:53:31.849Z,5.55
2024-02-13T17:55:58.464Z,5.64
2024-02-13T17:58:25.084Z,5.57
2024-02-13T18:00:51.733Z,5.47
2024-02-13T18:03:18.428Z,5.60
2024-02-13T18:05:45.241Z,5.52
2024-02-13T18:08:11.914Z,5.32
2024-02-13T18:10:38.509Z,5.26
2024-02-13T18:13:05.247Z,5.23
2024-02-13T18:15:31.883Z,5.34
2024-02-13T18:17:58.674Z,5.36
2024-02-13T18:20:25.655Z,5.45
2024-02-13T18:22:52.478Z,5.32
2024-02-13T18:25:19.115Z,5.36
2024-02-13T18:27:45.730Z,5.38
2024-02-13T18:30:12.801Z,5.21
2024-02-13T18:32:39.488Z,5.26
2024-02-13T18:35:06.542Z,5.22
2024-02-13T18:37:33.213Z,5.08
2024-02-13T18:39:59.874Z,5.13
2024-02-13T18:42:26.498Z,5.17
2024-02-13T18:44:53.774Z,5.08
2024-02-13T18:47:20.466Z,5.16
2024-02-13T18:49:47.110Z,5.24
2024-02-13T18:52:13.799Z,5.07
2024-02-13T18:54:40.360Z,5.35
2024-02-13T18:57:08.217Z,5.30
2024-02-13T18:59:35.025Z,5.20
2024-02-13T19:02:01.709Z,5.20
2024-02-13T19:04:28.496Z,5.20
2024-02-13T19:06:55.382Z,5.04
2024-02-13T19:09:22.382Z,5.04
2024-02-13T19:11:49.792Z,5.02
2024-02-13T19:14:16.385Z,4.98
2024-02-13T19:16:45.849Z,5.00
2024-02-13T19:19:12.750Z,5.20
2024-02-13T19:21:43.177Z,4.99
2024-02-13T19:24:10.210Z,4.97
2024-02-13T19:26:37.397Z,4.95
2024-02-13T19:29:04.957Z,5.07
2024-02-13T19:31:31.729Z,5.05
2024-02-13T19:33:58.571Z,4.85
2024-02-13T19:36:29.628Z,4.89
2024-02-13T19:38:56.219Z,4.95
2024-02-13T19:41:22.873Z,4.84
2024-02-13T19:43:49.551Z,4.92
2024-02-13T19:46:16.270Z,4.92
2024-02-13T19:48:43.103Z,4.93
2024-02-13T19:51:09.891Z,4.92
2024-02-13T19:53:36.657Z,4.89
2024-02-13T19:56:03.370Z,4.89
2024-02-13T19:58:29.960Z,4.67
2024-02-13T20:00:56.960Z,4.87
2024-02-13T20:03:23.656Z,4.81
2024-02-13T20:05:50.494Z,5.10
2024-02-13T20:08:17.123Z,5.23
2024-02-13T20:10:43.773Z,4.74
2024-02-13T20:13:10.447Z,4.79
2024-02-13T20:15:37.059Z,4.66
2024-02-13T20:18:04.520Z,4.54
2024-02-13T20:20:31.283Z,4.62
2024-02-13T20:22:57.938Z,4.86
2024-02-13T20:25:24.603Z,4.58
2024-02-13T20:27:51.208Z,4.79
2024-02-13T20:30:18.026Z,5.00
2024-02-13T20:32:46.592Z,5.23
2024-02-13T20:35:13.816Z,4.81
2024-02-13T20:37:40.546Z,4.87
2024-02-13T20:40:11.665Z,5.08
2024-02-13T20:42:44.207Z,5.53
2024-02-13T20:45:18.049Z,5.54
2024-02-13T20:47:49.818Z,5.69
2024-02-13T20:50:16.550Z,5.74
2024-02-13T20:52:43.179Z,5.68
2024-02-13T20:55:09.970Z,5.39
2024-02-13T20:57:36.648Z,5.27
2024-02-13T21:00:04.147Z,5.11
2024-02-13T21:02:30.901Z,5.10
2024-02-13T21:04:57.681Z,4.98
2024-02-13T21:07:24.292Z,4.65
2024-02-13T21:09:50.997Z,4.43
2024-02-13T21:12:17.873Z,4.66
2024-02-13T21:14:44.511Z,3.97
2024-02-13T21:17:11.250Z,3.95
2024-02-13T21:19:37.975Z,4.23
2024-02-13T21:22:04.724Z,4.54
2024-02-13T21:24:32.519Z,4.68
2024-02-13T21:26:59.370Z,4.65
2024-02-13T21:29:26.086Z,4.68
2024-02-13T21:31:52.780Z,4.91
2024-02-13T21:34:19.513Z,4.56
2024-02-13T21:36:46.264Z,4.64
2024-02-13T21:39:12.921Z,4.90
2024-02-13T21:41:39.605Z,4.85
2024-02-13T21:44:06.276Z,3.76
2024-02-13T21:46:32.937Z,3.81
2024-02-13T21:48:59.659Z,4.06
2024-02-13T21:51:26.439Z,4.27
2024-02-13T21:53:53.064Z,4.30
2024-02-13T21:56:20.088Z,4.61
2024-02-13T21:58:46.909Z,4.69
2024-02-13T22:01:14.164Z,4.86
2024-02-13T22:03:41.757Z,4.55
2024-02-13T22:06:08.813Z,3.82
2024-02-13T22:08:35.556Z,3.68
2024-02-13T22:11:02.286Z,3.49
2024-02-13T22:13:28.861Z,3.43
2024-02-13T22:15:55.803Z,3.27
2024-02-13T22:18:25.604Z,3.42
2024-02-13T22:20:52.940Z,3.45
2024-02-13T22:23:19.759Z,3.63
2024-02-13T22:25:46.352Z,3.64
2024-02-13T22:28:13.012Z,3.81
2024-02-13T22:30:39.701Z,3.76
2024-02-13T22:33:06.396Z,3.73
2024-02-13T22:35:33.073Z,3.55
2024-02-13T22:37:59.687Z,3.50
2024-02-13T22:40:26.961Z,3.53
2024-02-13T22:42:53.681Z,3.70
2024-02-13T22:45:20.362Z,3.89
2024-02-13T22:47:59.052Z,4.08
2024-02-13T22:50:26.203Z,3.96
2024-02-13T22:52:52.913Z,3.47
2024-02-13T22:55:19.581Z,3.48
2024-02-13T22:57:46.224Z,3.13
2024-02-13T23:00:13.673Z,3.34
2024-02-13T23:02:40.527Z,2.88
2024-02-13T23:05:07.534Z,3.00
2024-02-13T23:07:34.606Z,3.12
2024-02-13T23:10:01.250Z,2.66
2024-02-13T23:12:27.997Z,2.85
2024-02-13T23:14:54.700Z,3.09
2024-02-13T23:17:21.389Z,3.18
2024-02-13T23:19:48.117Z,2.95
2024-02-13T23:22:14.887Z,3.13
2024-02-13T23:24:41.605Z,3.10
2024-02-13T23:27:08.414Z,3.05
2024-02-13T23:29:35.088Z,3.03
2024-02-13T23:32:02.070Z,2.91
2024-02-13T23:34:28.824Z,3.04
2024-02-13T23:36:55.505Z,3.00
2024-02-13T23:39:22.238Z,3.26
2024-02-13T23:41:48.932Z,3.45
2024-02-13T23:44:15.635Z,3.48
2024-02-13T23:46:42.823Z,3.48
2024-02-13T23:49:09.623Z,3.67
2024-02-13T23:51:36.404Z,3.86
2024-02-13T23:54:03.100Z,3.74
2024-02-13T23:56:29.981Z,3.94
2024-02-13T23:58:56.652Z,3.89
